Time;durP1;ratioP1;P1;durP2;ratioP2;P2;SDS_P1;SDS_P2;PMS_P1;PMS_P2;Temp;Humidity;BMP_temperature;BMP_pressure;BME280_temperature;BME280_humidity;BME280_pressure;Samples;Min_cycle;Max_cycle;Signal;HPM_P1;HPM_P2
2021/06/17 00:00:35;;;;;;;9.45;8.55;;;;;;;-138.14;100.00;63448.66;4932179;28;20911;-76
2021/06/17 00:03:01;;;;;;;10.40;9.50;;;;;;;-138.14;100.00;63448.66;4951543;28;20221;-77
2021/06/17 00:05:29;;;;;;;10.20;9.30;;;;;;;-138.14;100.00;63448.66;4966066;28;20178;-75
2021/06/17 00:07:57;;;;;;;9.80;8.82;;;;;;;-138.14;100.00;63448.66;4916877;28;20190;-75
2021/06/17 00:10:25;;;;;;;10.73;9.63;;;;;;;-138.14;100.00;63448.66;4931828;28;20209;-74
2021/06/17 00:12:56;;;;;;;9.55;8.60;;;;;;;-138.14;100.00;63448.66;4948362;28;20232;-75
2021/06/17 00:15:27;;;;;;;9.68;8.75;;;;;;;-138.14;100.00;63448.66;4932632;28;20210;-75
2021/06/17 00:17:59;;;;;;;11.05;9.43;;;;;;;-138.14;100.00;63448.66;4933044;28;20248;-75
2021/06/17 00:20:28;;;;;;;9.73;8.73;;;;;;;-138.14;100.00;63448.66;4931855;28;20677;-75
2021/06/17 00:22:54;;;;;;;10.73;9.63;;;;;;;-138.14;100.00;63448.66;4932559;28;20209;-75
2021/06/17 00:25:19;;;;;;;10.07;8.95;;;;;;;-138.14;100.00;63448.66;4948398;28;20248;-75
2021/06/17 00:27:47;;;;;;;10.25;9.35;;;;;;;-138.14;100.00;63448.66;4948176;28;20182;-75
2021/06/17 00:30:16;;;;;;;9.65;8.75;;;;;;;-138.14;100.00;63448.66;4915562;28;20178;-76
2021/06/17 00:32:46;;;;;;;10.40;9.50;;;;;;;-138.14;100.00;63448.66;4932843;28;20209;-75
2021/06/17 00:35:14;;;;;;;10.32;9.43;;;;;;;-138.14;100.00;63448.66;4933459;28;20210;-76
2021/06/17 00:37:44;;;;;;;10.93;9.90;;;;;;;-138.14;100.00;63448.66;4932399;28;20194;-76
2021/06/17 00:40:11;;;;;;;11.18;10.18;;;;;;;-138.14;100.00;63448.66;4931181;28;20281;-75
2021/06/17 00:42:46;;;;;;;9.90;9.10;;;;;;;-138.14;100.00;63448.66;4932438;28;20222;-75
2021/06/17 00:45:14;;;;;;;10.18;9.18;;;;;;;-138.14;100.00;63448.66;4932774;28;20186;-75
2021/06/17 00:47:44;;;;;;;10.73;9.73;;;;;;;-138.14;100.00;63448.66;4931967;28;20194;-75
2021/06/17 00:50:11;;;;;;;10.40;9.30;;;;;;;-138.14;100.00;63448.66;4916064;28;20197;-76
2021/06/17 00:52:36;;;;;;;11.13;9.93;;;;;;;-138.14;100.00;63448.66;4965977;28;20241;-74
2021/06/17 00:55:08;;;;;;;10.88;9.77;;;;;;;-138.14;100.00;63448.66;4951779;28;20229;-75
2021/06/17 00:57:35;;;;;;;10.68;9.80;;;;;;;-138.14;100.00;63448.66;4968701;28;20779;-75
2021/06/17 01:00:05;;;;;;;10.93;9.80;;;;;;;-138.14;100.00;63448.66;4920174;28;20213;-76
2021/06/17 01:02:31;;;;;;;11.40;10.40;;;;;;;-138.14;100.00;63448.66;4920007;28;20224;-75
2021/06/17 01:04:59;;;;;;;10.82;9.73;;;;;;;-138.14;100.00;63448.66;4935741;28;20186;-76
2021/06/17 01:07:51;;;;;;;10.20;9.32;;;;;;;-138.14;100.00;63448.66;4951117;28;20241;-75
2021/06/17 01:10:30;;;;;;;11.60;10.50;;;;;;;-138.14;100.00;63448.66;4922800;28;20209;-76
2021/06/17 01:13:05;;;;;;;10.85;9.80;;;;;;;-138.14;100.00;63448.66;4915522;29;20222;-75
2021/06/17 01:15:31;;;;;;;10.45;9.63;;;;;;;-138.14;100.00;63448.66;4916301;28;20761;-77
2021/06/17 01:18:14;;;;;;;11.10;10.10;;;;;;;-138.14;100.00;63448.66;4950861;28;20187;-76
2021/06/17 01:20:57;;;;;;;10.85;9.95;;;;;;;-138.14;100.00;63448.66;4951277;28;20182;-75
2021/06/17 01:23:41;;;;;;;10.63;9.63;;;;;;;-138.14;100.00;63448.66;4920411;28;20617;-75
2021/06/17 01:26:56;;;;;;;11.77;10.73;;;;;;;-138.14;100.00;63448.66;4951031;28;21065;-75
2021/06/17 01:29:24;;;;;;;12.65;10.40;;;;;;;-138.14;100.00;63448.66;4876892;29;20213;-75
2021/06/17 01:31:52;;;;;;;11.38;10.38;;;;;;;-138.14;100.00;63448.66;4927236;28;20742;-75
2021/06/17 01:34:18;;;;;;;11.10;10.00;;;;;;;-138.14;100.00;63448.66;4934866;28;20293;-75
2021/06/17 01:36:47;;;;;;;11.63;10.63;;;;;;;-138.14;100.00;63448.66;4919200;28;20182;-75
2021/06/17 01:39:13;;;;;;;11.40;10.40;;;;;;;-138.14;100.00;63448.66;4951146;28;20201;-76
2021/06/17 01:41:41;;;;;;;11.45;10.52;;;;;;;-138.14;100.00;63448.66;4932042;28;20210;-75
2021/06/17 01:44:08;;;;;;;11.82;10.75;;;;;;;-138.14;100.00;63448.66;4900281;29;20675;-75
2021/06/17 01:46:36;;;;;;;11.93;10.95;;;;;;;-138.14;100.00;63448.66;4915511;29;20218;-76
2021/06/17 01:49:04;;;;;;;11.98;10.82;;;;;;;-138.14;100.00;63448.66;4916791;29;20183;-75
2021/06/17 01:51:31;;;;;;;11.70;10.80;;;;;;;-138.14;100.00;63448.66;4899346;29;20286;-76
2021/06/17 01:53:57;;;;;;;12.48;11.38;;;;;;;-138.14;100.00;63448.66;4900178;29;20895;-75
2021/06/17 01:56:27;;;;;;;12.15;11.07;;;;;;;-138.14;100.00;63448.66;4900200;29;20198;-76
2021/06/17 01:58:59;;;;;;;12.80;11.70;;;;;;;-138.14;100.00;63448.66;4915782;29;20187;-76
2021/06/17 02:01:31;;;;;;;12.32;11.30;;;;;;;-138.14;100.00;63448.66;4916507;29;20954;-75
2021/06/17 02:04:00;;;;;;;12.35;11.20;;;;;;;-138.14;100.00;63448.66;4915311;28;20322;-75
2021/06/17 02:06:27;;;;;;;12.60;11.45;;;;;;;-138.14;100.00;63448.66;4898963;29;20183;-76
2021/06/17 02:08:54;;;;;;;12.25;11.30;;;;;;;-138.14;100.00;63448.66;4915447;29;20194;-75
2021/06/17 02:11:19;;;;;;;12.60;11.50;;;;;;;-138.14;100.00;63448.66;4914173;29;20274;-75
2021/06/17 02:13:45;;;;;;;13.40;12.20;;;;;;;-138.14;100.00;63448.66;4899668;29;20197;-75
2021/06/17 02:16:11;;;;;;;12.23;11.13;;;;;;;-138.14;100.00;63448.66;4915385;29;20179;-75
2021/06/17 02:18:43;;;;;;;12.80;11.70;;;;;;;-138.14;100.00;63448.66;4915838;29;20188;-76
2021/06/17 02:21:09;;;;;;;12.75;11.43;;;;;;;-138.14;100.00;63448.66;4930783;29;20228;-75
2021/06/17 02:23:35;;;;;;;12.70;11.60;;;;;;;-138.14;100.00;63448.66;4915262;29;20267;-75
2021/06/17 02:26:01;;;;;;;12.38;11.27;;;;;;;-138.14;100.00;63448.66;4914790;29;20996;-76
2021/06/17 02:28:30;;;;;;;13.25;11.95;;;;;;;-138.14;100.00;63448.66;4899014;29;20203;-75
2021/06/17 02:30:58;;;;;;;13.05;11.68;;;;;;;-138.14;100.00;63448.66;4915092;29;20186;-75
2021/06/17 02:33:24;;;;;;;12.48;11.43;;;;;;;-138.14;100.00;63448.66;4915391;29;20190;-75
2021/06/17 02:35:54;;;;;;;12.95;11.85;;;;;;;-138.14;100.00;63448.66;4915076;29;20747;-76
2021/06/17 02:38:25;;;;;;;13.15;12.00;;;;;;;-138.14;100.00;63448.66;4914562;29;20201;-76
2021/06/17 02:40:50;;;;;;;12.40;11.40;;;;;;;-138.14;100.00;63448.66;4914270;29;20796;-76
2021/06/17 02:43:19;;;;;;;13.30;12.20;;;;;;;-138.14;100.00;63448.66;4914876;29;20283;-75
2021/06/17 02:45:45;;;;;;;13.80;12.50;;;;;;;-138.14;100.00;63448.66;4899049;29;20194;-75
2021/06/17 02:48:11;;;;;;;13.35;12.25;;;;;;;-138.14;100.00;63448.66;4914722;29;20358;-75
2021/06/17 02:50:42;;;;;;;12.75;11.75;;;;;;;-138.14;100.00;63448.66;4929412;29;20190;-75
2021/06/17 02:53:08;;;;;;;13.10;11.93;;;;;;;-138.14;100.00;63448.66;4930795;29;20705;-75
2021/06/17 02:55:38;;;;;;;13.75;12.63;;;;;;;-138.14;100.00;63448.66;4915333;29;20231;-76
2021/06/17 02:58:17;;;;;;;13.27;12.15;;;;;;;-138.14;100.00;63448.66;4898813;29;20258;-76
2021/06/17 03:00:52;;;;;;;13.63;12.40;;;;;;;-138.14;100.00;63448.66;4914783;28;20282;-75
2021/06/17 03:03:39;;;;;;;13.65;12.35;;;;;;;-138.14;100.00;63448.66;4914934;29;20230;-76
2021/06/17 03:06:24;;;;;;;13.15;12.05;;;;;;;-138.14;100.00;63448.66;4914524;29;20194;-75
2021/06/17 03:08:57;;;;;;;13.45;12.25;;;;;;;-138.14;100.00;63448.66;4914184;29;20195;-76
2021/06/17 03:11:28;;;;;;;12.95;11.70;;;;;;;-138.14;100.00;63448.66;4913391;29;20215;-76
2021/06/17 03:14:04;;;;;;;13.25;12.07;;;;;;;-138.14;100.00;63448.66;4914669;29;20244;-75
2021/06/17 03:16:31;;;;;;;13.13;11.75;;;;;;;-138.14;100.00;63448.66;4914330;29;20190;-76
2021/06/17 03:19:01;;;;;;;13.13;12.02;;;;;;;-138.14;100.00;63448.66;4930718;28;20185;-75
2021/06/17 03:21:36;;;;;;;12.77;11.68;;;;;;;-138.14;100.00;63448.66;4940324;28;20240;-76
2021/06/17 03:24:02;;;;;;;13.02;11.93;;;;;;;-138.14;100.00;63448.66;4914410;29;20654;-75
2021/06/17 03:26:29;;;;;;;14.00;12.60;;;;;;;-138.14;100.00;63448.66;4917276;28;20192;-76
2021/06/17 03:28:57;;;;;;;13.25;12.15;;;;;;;-138.14;100.00;63448.66;4917380;28;20252;-76
2021/06/17 03:31:26;;;;;;;12.95;11.75;;;;;;;-138.14;100.00;63448.66;4933389;28;20703;-76
2021/06/17 03:33:52;;;;;;;13.55;12.35;;;;;;;-138.14;100.00;63448.66;4965857;28;20784;-76
2021/06/17 03:36:17;;;;;;;13.55;12.23;;;;;;;-138.14;100.00;63448.66;4940453;28;20174;-76
2021/06/17 03:38:45;;;;;;;12.70;11.68;;;;;;;-138.14;100.00;63448.66;4932603;28;20183;-76
2021/06/17 03:41:14;;;;;;;13.20;11.80;;;;;;;-138.14;100.00;63448.66;4931243;28;20186;-76
2021/06/17 03:43:39;;;;;;;12.18;11.07;;;;;;;-138.14;100.00;63448.66;4914244;28;20867;-76
2021/06/17 03:46:05;;;;;;;13.70;12.07;;;;;;;-138.14;100.00;63448.66;4931982;28;20217;-77
2021/06/17 03:48:30;;;;;;;12.70;11.60;;;;;;;-138.14;100.00;63448.66;4931306;28;20760;-76
2021/06/17 03:50:56;;;;;;;13.27;12.15;;;;;;;-138.14;100.00;63448.66;4913452;28;20214;-77
2021/06/17 03:53:23;;;;;;;13.95;12.30;;;;;;;-138.14;100.00;63448.66;4930243;28;20214;-77
2021/06/17 03:55:52;;;;;;;13.15;11.55;;;;;;;-138.14;100.00;63448.66;4931291;28;20222;-76
2021/06/17 03:58:18;;;;;;;13.23;12.02;;;;;;;-138.14;100.00;63448.66;4947234;28;20178;-77
2021/06/17 04:00:50;;;;;;;13.38;11.93;;;;;;;-138.14;100.00;63448.66;4915792;28;20747;-77
2021/06/17 04:03:16;;;;;;;13.18;11.98;;;;;;;-138.14;100.00;63448.66;4917441;28;20206;-75
2021/06/17 04:05:51;;;;;;;12.82;11.63;;;;;;;-138.14;100.00;63448.66;4935173;28;20178;-77
2021/06/17 04:08:19;;;;;;;13.05;11.93;;;;;;;-138.14;100.00;63448.66;4920437;28;20190;-76
2021/06/17 04:10:44;;;;;;;12.30;10.93;;;;;;;-138.14;100.00;63448.66;4932922;28;20246;-76
2021/06/17 04:13:12;;;;;;;12.50;11.40;;;;;;;-138.14;100.00;63448.66;4916883;28;20209;-77
2021/06/17 04:15:40;;;;;;;12.02;11.10;;;;;;;-138.14;100.00;63448.66;4913229;28;20214;-76
2021/06/17 04:18:08;;;;;;;12.13;11.13;;;;;;;-138.14;100.00;63448.66;4933883;28;20178;-76
2021/06/17 04:20:43;;;;;;;12.15;11.13;;;;;;;-138.14;100.00;63448.66;4916259;28;20214;-77
2021/06/17 04:23:13;;;;;;;12.77;11.77;;;;;;;-138.14;100.00;63448.66;4917802;28;20213;-77
2021/06/17 04:25:39;;;;;;;12.15;11.05;;;;;;;-138.14;100.00;63448.66;4948845;28;20196;-77
2021/06/17 04:28:07;;;;;;;12.10;11.05;;;;;;;-138.14;100.00;63448.66;4933853;28;20197;-77
2021/06/17 04:30:33;;;;;;;12.63;11.30;;;;;;;-138.14;100.00;63448.66;4935333;28;20186;-76
2021/06/17 04:33:04;;;;;;;12.48;11.32;;;;;;;-138.14;100.00;63448.66;4920691;28;20202;-77
2021/06/17 04:35:32;;;;;;;12.63;11.48;;;;;;;-138.14;100.00;63448.66;4931104;28;20206;-76
2021/06/17 04:38:02;;;;;;;12.07;10.98;;;;;;;-138.14;100.00;63448.66;4937563;28;20178;-78
2021/06/17 04:40:32;;;;;;;11.77;10.75;;;;;;;-138.14;100.00;63448.66;4920841;28;20205;-77
2021/06/17 04:43:01;;;;;;;11.30;10.15;;;;;;;-138.14;100.00;63448.66;4954181;28;20206;-78
2021/06/17 04:45:30;;;;;;;11.77;10.77;;;;;;;-138.14;100.00;63448.66;4971661;28;20174;-78
2021/06/17 04:48:00;;;;;;;11.63;10.52;;;;;;;-138.14;100.00;63448.66;4937735;28;20205;-78
2021/06/17 04:50:28;;;;;;;12.13;10.75;;;;;;;-138.14;100.00;63448.66;4921231;28;20197;-78
2021/06/17 04:52:56;;;;;;;11.75;10.65;;;;;;;-138.14;100.00;63448.66;4938693;28;20217;-79
2021/06/17 04:55:23;;;;;;;12.05;10.95;;;;;;;-138.14;100.00;63448.66;4954196;28;20210;-79
2021/06/17 04:57:52;;;;;;;10.77;9.82;;;;;;;-138.14;100.00;63448.66;4956640;28;20241;-78
2021/06/17 05:00:22;;;;;;;11.55;10.55;;;;;;;-138.14;100.00;63448.66;4970978;28;20189;-77
2021/06/17 05:02:48;;;;;;;11.15;10.25;;;;;;;-138.14;100.00;63448.66;4935904;28;20210;-77
2021/06/17 05:05:16;;;;;;;11.43;10.32;;;;;;;-138.14;100.00;63448.66;4916429;28;20344;-77
2021/06/17 05:12:54;;;;;;;11.30;10.30;;;;;;;-138.14;100.00;63448.66;4938052;29;20222;-78
2021/06/17 05:15:22;;;;;;;11.70;10.20;;;;;;;-138.14;100.00;63448.66;4915930;28;20229;-77
2021/06/17 05:17:50;;;;;;;11.77;10.68;;;;;;;-138.14;100.00;63448.66;4927723;28;20213;-77
2021/06/17 05:20:16;;;;;;;10.90;9.80;;;;;;;-138.14;100.00;63448.66;4936014;28;20325;-79
2021/06/17 05:22:44;;;;;;;11.65;10.52;;;;;;;-138.14;100.00;63448.66;4947679;28;20206;-78
2021/06/17 05:25:11;;;;;;;11.40;10.40;;;;;;;-138.14;100.00;63448.66;4939756;29;20188;-78
2021/06/17 05:27:37;;;;;;;11.25;10.23;;;;;;;-138.14;100.00;63448.66;4930150;28;20183;-77
2021/06/17 05:30:04;;;;;;;11.45;10.43;;;;;;;-138.14;100.00;63448.66;4917977;29;20183;-78
2021/06/17 05:32:30;;;;;;;11.75;10.68;;;;;;;-138.14;100.00;63448.66;4919846;28;20572;-78
2021/06/17 05:34:56;;;;;;;27.88;25.10;;;;;;;-138.14;100.00;63448.66;4928982;28;20217;-75
2021/06/17 05:37:24;;;;;;;11.70;10.70;;;;;;;-138.14;100.00;63448.66;4909838;28;20193;-77
2021/06/17 05:39:52;;;;;;;10.77;9.88;;;;;;;-138.14;100.00;63448.66;4930448;28;20175;-78
2021/06/17 05:42:20;;;;;;;12.27;10.10;;;;;;;-138.14;100.00;63448.66;4946813;28;20206;-77
2021/06/17 05:44:48;;;;;;;11.27;10.18;;;;;;;-138.14;100.00;63448.66;4915961;29;20219;-77
2021/06/17 05:47:13;;;;;;;11.40;10.20;;;;;;;-138.14;100.00;63448.66;4934281;28;20178;-78
2021/06/17 05:49:44;;;;;;;10.93;9.85;;;;;;;-138.14;100.00;63448.66;4935694;28;20243;-77
2021/06/17 05:52:12;;;;;;;11.13;10.13;;;;;;;-138.14;100.00;63448.66;4934676;28;20214;-77
2021/06/17 05:54:45;;;;;;;10.32;9.30;;;;;;;-138.14;100.00;63448.66;4950457;28;20245;-77
2021/06/17 05:57:12;;;;;;;11.05;10.00;;;;;;;-138.14;100.00;63448.66;4935649;28;20213;-76
2021/06/17 05:59:40;;;;;;;10.52;9.63;;;;;;;-138.14;100.00;63448.66;4935140;28;20191;-77
2021/06/17 06:02:06;;;;;;;10.60;9.73;;;;;;;-138.14;100.00;63448.66;4947477;28;20264;-77
2021/06/17 06:04:32;;;;;;;11.25;10.18;;;;;;;-138.14;100.00;63448.66;4934365;28;20763;-77
2021/06/17 06:07:03;;;;;;;11.70;10.30;;;;;;;-138.14;100.00;63448.66;4951008;28;20649;-78
2021/06/17 06:09:29;;;;;;;10.82;9.82;;;;;;;-138.14;100.00;63448.66;4934877;28;20281;-77
2021/06/17 06:11:57;;;;;;;10.43;9.60;;;;;;;-138.14;100.00;63448.66;4933731;28;20281;-77
2021/06/17 06:14:24;;;;;;;10.50;9.50;;;;;;;-138.14;100.00;63448.66;4918531;28;20211;-77
2021/06/17 06:16:53;;;;;;;10.70;9.80;;;;;;;-138.14;100.00;63448.66;4934658;28;20210;-77
2021/06/17 06:19:21;;;;;;;9.85;8.95;;;;;;;-138.14;100.00;63448.66;4934751;28;20205;-78
2021/06/17 06:21:47;;;;;;;10.25;9.35;;;;;;;-138.14;100.00;63448.66;4949579;28;20249;-77
2021/06/17 06:24:15;;;;;;;10.60;9.70;;;;;;;-138.14;100.00;63448.66;4918601;28;20190;-78
2021/06/17 06:26:44;;;;;;;10.27;9.38;;;;;;;-138.14;100.00;63448.66;4935367;28;20194;-77
2021/06/17 06:29:10;;;;;;;10.48;9.48;;;;;;;-138.14;100.00;63448.66;4950616;28;20190;-78
2021/06/17 06:31:35;;;;;;;9.85;8.95;;;;;;;-138.14;100.00;63448.66;4916359;28;20272;-78
2021/06/17 06:34:01;;;;;;;9.85;9.05;;;;;;;-138.14;100.00;63448.66;4934332;28;20989;-77
2021/06/17 06:36:27;;;;;;;10.10;9.20;;;;;;;-138.14;100.00;63448.66;4918432;28;20187;-77
2021/06/17 06:38:52;;;;;;;10.45;9.40;;;;;;;-138.14;100.00;63448.66;4917949;28;20186;-77
2021/06/17 06:41:18;;;;;;;9.73;8.93;;;;;;;-138.14;100.00;63448.66;4933272;28;20608;-77
2021/06/17 06:43:48;;;;;;;10.27;9.35;;;;;;;-138.14;100.00;63448.66;4919277;28;20186;-77
2021/06/17 06:46:16;;;;;;;10.65;9.75;;;;;;;-138.14;100.00;63448.66;4934058;28;20266;-78
2021/06/17 06:48:41;;;;;;;10.43;9.40;;;;;;;-138.14;100.00;63448.66;4934181;28;20183;-78
2021/06/17 06:51:07;;;;;;;9.73;8.90;;;;;;;-138.14;100.00;63448.66;4916840;28;20867;-78
2021/06/17 06:53:34;;;;;;;9.35;8.55;;;;;;;-138.14;100.00;63448.66;4949777;28;20237;-78
2021/06/17 06:56:05;;;;;;;9.70;8.70;;;;;;;-138.14;100.00;63448.66;4934173;28;20218;-78
2021/06/17 06:58:31;;;;;;;9.98;8.93;;;;;;;-138.14;100.00;63448.66;4933993;28;20194;-78
2021/06/17 07:00:59;;;;;;;9.95;8.95;;;;;;;-138.14;100.00;63448.66;4917052;28;20237;-78
2021/06/17 07:03:24;;;;;;;9.13;8.23;;;;;;;-138.14;100.00;63448.66;4933685;28;20196;-77
2021/06/17 07:05:52;;;;;;;9.15;8.30;;;;;;;-138.14;100.00;63448.66;4949635;28;20202;-78
2021/06/17 07:08:20;;;;;;;9.27;8.50;;;;;;;-138.14;100.00;63448.66;4934128;28;20209;-77
2021/06/17 07:10:48;;;;;;;9.30;8.07;;;;;;;-138.14;100.00;63448.66;4933068;28;20190;-79
2021/06/17 07:13:17;;;;;;;10.93;8.60;;;;;;;-138.14;100.00;63448.66;4933679;28;20242;-78
2021/06/17 07:15:45;;;;;;;8.38;7.60;;;;;;;-138.14;100.00;63448.66;4903172;29;20215;-77
2021/06/17 07:18:10;;;;;;;8.75;8.00;;;;;;;-138.14;100.00;63448.66;4914653;29;20441;-77
2021/06/17 07:20:39;;;;;;;8.45;7.70;;;;;;;-138.14;100.00;63448.66;4913609;29;20191;-78
2021/06/17 07:23:09;;;;;;;8.43;7.57;;;;;;;-138.14;100.00;63448.66;4931031;29;20213;-77
2021/06/17 07:25:35;;;;;;;8.88;8.13;;;;;;;-138.14;100.00;63448.66;4915330;29;20995;-76
2021/06/17 07:28:01;;;;;;;8.50;7.60;;;;;;;-138.14;100.00;63448.66;4929951;29;20198;-77
2021/06/17 07:30:29;;;;;;;8.75;7.90;;;;;;;-138.14;100.00;63448.66;4929302;29;20187;-78
2021/06/17 07:32:54;;;;;;;8.27;7.57;;;;;;;-138.14;100.00;63448.66;4929756;29;20269;-77
2021/06/17 07:35:23;;;;;;;8.52;7.80;;;;;;;-138.14;100.00;63448.66;4898299;29;20759;-77
2021/06/17 07:37:53;;;;;;;9.13;7.80;;;;;;;-138.14;100.00;63448.66;4930671;29;20706;-77
2021/06/17 07:40:19;;;;;;;8.20;7.50;;;;;;;-138.14;100.00;63448.66;4928893;29;20231;-78
2021/06/17 07:42:47;;;;;;;8.05;7.28;;;;;;;-138.14;100.00;63448.66;4913724;29;20663;-77
2021/06/17 07:45:13;;;;;;;8.38;7.57;;;;;;;-138.14;100.00;63448.66;4898647;29;20183;-77
2021/06/17 07:47:43;;;;;;;8.02;7.32;;;;;;;-138.14;100.00;63448.66;4929614;29;20278;-77
2021/06/17 07:50:13;;;;;;;7.75;7.05;;;;;;;-138.14;100.00;63448.66;4914104;29;20276;-76
2021/06/17 07:52:42;;;;;;;7.78;7.05;;;;;;;-138.14;100.00;63448.66;4914554;28;20206;-76
2021/06/17 07:55:08;;;;;;;7.88;7.18;;;;;;;-138.14;100.00;63448.66;4926839;28;20218;-77
2021/06/17 07:57:36;;;;;;;8.57;7.75;;;;;;;-138.14;100.00;63448.66;4932908;28;20178;-77
2021/06/17 08:00:02;;;;;;;8.68;7.40;;;;;;;-138.14;100.00;63448.66;4917054;28;20811;-76
2021/06/17 08:02:35;;;;;;;7.60;6.93;;;;;;;-138.14;100.00;63448.66;4933920;28;20214;-77
2021/06/17 08:05:03;;;;;;;7.78;7.07;;;;;;;-138.14;100.00;63448.66;4948545;28;20178;-77
2021/06/17 08:07:31;;;;;;;7.75;7.15;;;;;;;-138.14;100.00;63448.66;4932713;28;20859;-77
2021/06/17 08:09:59;;;;;;;7.72;7.00;;;;;;;-138.14;100.00;63448.66;4928885;28;20186;-77
2021/06/17 08:12:27;;;;;;;8.10;6.68;;;;;;;-138.14;100.00;63448.66;4932450;28;20206;-77
2021/06/17 08:14:57;;;;;;;7.13;6.53;;;;;;;-138.14;100.00;63448.66;4917449;28;20222;-77
2021/06/17 08:17:22;;;;;;;7.10;6.40;;;;;;;-138.14;100.00;63448.66;4948801;28;20174;-78
2021/06/17 08:19:48;;;;;;;7.70;7.15;;;;;;;-138.14;100.00;63448.66;4931837;28;20186;-77
2021/06/17 08:22:16;;;;;;;7.65;7.05;;;;;;;-138.14;100.00;63448.66;4933043;28;20213;-76
2021/06/17 08:24:46;;;;;;;7.47;6.88;;;;;;;-138.14;100.00;63448.66;4934812;28;20199;-76
2021/06/17 08:27:14;;;;;;;7.45;6.85;;;;;;;-138.14;100.00;63448.66;4936631;28;20186;-77
2021/06/17 08:29:40;;;;;;;7.13;6.53;;;;;;;-138.14;100.00;63448.66;4917093;28;20190;-77
2021/06/17 08:32:08;;;;;;;7.20;6.60;;;;;;;-138.14;100.00;63448.66;4931949;28;21013;-77
2021/06/17 08:34:34;;;;;;;7.32;6.60;;;;;;;-138.14;100.00;63448.66;4917444;28;20237;-77
2021/06/17 08:37:05;;;;;;;6.72;6.13;;;;;;;-138.14;100.00;63448.66;4948086;28;20206;-77
2021/06/17 08:39:35;;;;;;;7.72;6.10;;;;;;;-138.14;100.00;63448.66;4933206;28;20192;-76
2021/06/17 08:42:03;;;;;;;8.30;6.28;;;;;;;-138.14;100.00;63448.66;4901345;28;20210;-77
2021/06/17 08:44:29;;;;;;;6.93;6.30;;;;;;;-138.14;100.00;63448.66;4949044;28;20241;-76
2021/06/17 08:46:58;;;;;;;6.72;6.22;;;;;;;-138.14;100.00;63448.66;4965872;28;20167;-76
2021/06/17 08:49:27;;;;;;;6.68;6.07;;;;;;;-138.14;100.00;63448.66;4948950;28;20583;-76
2021/06/17 08:51:57;;;;;;;6.57;5.85;;;;;;;-138.14;100.00;63448.66;4948175;28;20207;-76
2021/06/17 08:54:24;;;;;;;6.57;5.93;;;;;;;-138.14;100.00;63448.66;4949513;28;20242;-75
2021/06/17 08:56:52;;;;;;;6.25;5.75;;;;;;;-138.14;100.00;63448.66;4965841;28;21062;-76
2021/06/17 08:59:33;;;;;;;6.15;5.53;;;;;;;-138.14;100.00;63448.66;4933228;28;20241;-76
2021/06/17 09:02:03;;;;;;;6.10;5.60;;;;;;;-138.14;100.00;63448.66;4919366;28;20821;-77
2021/06/17 09:04:30;;;;;;;7.38;5.80;;;;;;;-138.14;100.00;63448.66;4948899;28;20190;-77
2021/06/17 09:07:12;;;;;;;6.25;5.70;;;;;;;-138.14;100.00;63448.66;4932901;28;20212;-76
2021/06/17 09:09:45;;;;;;;6.18;5.43;;;;;;;-138.14;100.00;63448.66;4922620;28;20217;-74
2021/06/17 09:12:12;;;;;;;6.13;5.55;;;;;;;-138.14;100.00;63448.66;4937164;28;20310;-76
2021/06/17 09:14:44;;;;;;;5.97;5.47;;;;;;;-138.14;100.00;63448.66;4925344;28;20221;-77
2021/06/17 09:17:10;;;;;;;5.20;4.80;;;;;;;-138.14;100.00;63448.66;4924241;28;20265;-76
2021/06/17 09:19:44;;;;;;;6.53;4.55;;;;;;;-138.14;100.00;63448.66;4955631;28;20431;-76
2021/06/17 09:22:11;;;;;;;5.07;4.68;;;;;;;-138.14;100.00;63448.66;4921355;28;20292;-76
2021/06/17 09:24:43;;;;;;;5.43;4.93;;;;;;;-138.14;100.00;63448.66;4920525;28;20341;-75
2021/06/17 09:27:31;;;;;;;5.90;4.90;;;;;;;-138.14;100.00;63448.66;4935703;28;20444;-77
2021/06/17 09:30:12;;;;;;;4.85;4.45;;;;;;;-138.14;100.00;63448.66;4967863;28;20193;-77
2021/06/17 09:32:48;;;;;;;5.38;4.97;;;;;;;-138.14;100.00;63448.66;4951043;28;20202;-76
2021/06/17 09:35:24;;;;;;;4.85;4.38;;;;;;;-138.14;100.00;63448.66;4952564;28;20218;-77
2021/06/17 09:38:03;;;;;;;4.93;4.40;;;;;;;-138.14;100.00;63448.66;4920597;28;20190;-76
2021/06/17 09:40:35;;;;;;;5.00;4.50;;;;;;;-138.14;100.00;63448.66;4936063;28;20353;-77
2021/06/17 09:43:23;;;;;;;6.15;4.53;;;;;;;-138.14;100.00;63448.66;4935417;28;20301;-75
2021/06/17 09:46:01;;;;;;;5.20;4.70;;;;;;;-138.14;100.00;63448.66;4937366;28;20266;-76
2021/06/17 09:48:30;;;;;;;6.53;4.57;;;;;;;-138.14;100.00;63448.66;4920840;28;20213;-76
2021/06/17 09:51:00;;;;;;;4.45;3.97;;;;;;;-138.14;100.00;63448.66;4950021;28;20232;-76
2021/06/17 09:53:27;;;;;;;4.32;3.88;;;;;;;-138.14;100.00;63448.66;4919787;28;20207;-76
2021/06/17 09:55:54;;;;;;;5.13;4.00;;;;;;;-138.14;100.00;63448.66;4951233;28;20198;-76
2021/06/17 09:58:42;;;;;;;4.65;4.25;;;;;;;-138.14;100.00;63448.66;4968397;28;20568;-76
2021/06/17 10:01:18;;;;;;;5.72;4.10;;;;;;;-138.14;100.00;63448.66;4935507;28;20214;-76
2021/06/17 10:04:05;;;;;;;4.28;3.90;;;;;;;-138.14;100.00;63448.66;4920494;28;20600;-76
2021/06/17 10:06:30;;;;;;;4.53;4.13;;;;;;;-138.14;100.00;63448.66;4950636;28;20249;-77
2021/06/17 10:09:02;;;;;;;5.88;4.00;;;;;;;-138.14;100.00;63448.66;4918938;28;20966;-76
2021/06/17 10:11:28;;;;;;;4.43;4.03;;;;;;;-138.14;100.00;63448.66;4950061;28;20830;-77
2021/06/17 10:13:53;;;;;;;6.28;4.10;;;;;;;-138.14;100.00;63448.66;4918644;28;20198;-76
2021/06/17 10:16:19;;;;;;;5.93;4.07;;;;;;;-138.14;100.00;63448.66;4918637;28;20325;-77
2021/06/17 10:18:45;;;;;;;4.13;3.70;;;;;;;-138.14;100.00;63448.66;4934469;28;20189;-78
2021/06/17 10:21:14;;;;;;;4.35;3.65;;;;;;;-138.14;100.00;63448.66;4934002;28;20197;-77
2021/06/17 10:23:47;;;;;;;4.63;4.22;;;;;;;-138.14;100.00;63448.66;4935576;29;20273;-77
2021/06/17 10:26:13;;;;;;;3.50;3.20;;;;;;;-138.14;100.00;63448.66;4931208;29;20234;-76
2021/06/17 10:28:52;;;;;;;3.80;3.30;;;;;;;-138.14;100.00;63448.66;4930808;29;20175;-76
2021/06/17 10:31:39;;;;;;;3.90;3.50;;;;;;;-138.14;100.00;63448.66;4914216;29;20183;-76
2021/06/17 10:34:22;;;;;;;5.20;3.20;;;;;;;-138.14;100.00;63448.66;4931249;29;20673;-76
2021/06/17 10:37:10;;;;;;;3.70;3.40;;;;;;;-138.14;100.00;63448.66;4948714;29;20183;-76
2021/06/17 10:39:37;;;;;;;4.10;3.67;;;;;;;-138.14;100.00;63448.66;4932172;29;20224;-76
2021/06/17 10:42:06;;;;;;;3.60;3.30;;;;;;;-138.14;100.00;63448.66;4930163;29;20592;-75
2021/06/17 10:44:50;;;;;;;3.80;3.50;;;;;;;-138.14;100.00;63448.66;4915076;29;20249;-76
2021/06/17 10:47:41;;;;;;;4.88;3.22;;;;;;;-138.14;100.00;63448.66;4948179;29;20190;-75
2021/06/17 10:50:21;;;;;;;5.13;3.20;;;;;;;-138.14;100.00;63448.66;4929710;29;20198;-77
2021/06/17 10:52:53;;;;;;;5.18;3.70;;;;;;;-138.14;100.00;63448.66;4900781;29;20370;-76
2021/06/17 10:55:20;;;;;;;4.13;3.20;;;;;;;-138.14;100.00;63448.66;4899348;29;20215;-77
2021/06/17 10:57:52;;;;;;;4.55;3.47;;;;;;;-138.14;100.00;63448.66;4915401;29;20261;-77
2021/06/17 11:00:21;;;;;;;3.78;3.22;;;;;;;-138.14;100.00;63448.66;4914364;29;20283;-77
2021/06/17 11:02:56;;;;;;;3.67;3.35;;;;;;;-138.14;100.00;63448.66;4929978;29;20730;-77
2021/06/17 11:05:34;;;;;;;5.90;3.58;;;;;;;-138.14;100.00;63448.66;4900714;29;20277;-76
2021/06/17 11:08:28;;;;;;;3.63;3.30;;;;;;;-138.14;100.00;63448.66;4932231;29;20230;-76
2021/06/17 11:11:06;;;;;;;3.97;3.67;;;;;;;-138.14;100.00;63448.66;4914123;29;20195;-76
2021/06/17 11:13:38;;;;;;;3.85;3.40;;;;;;;-138.14;100.00;63448.66;4898699;29;20224;-77
2021/06/17 11:16:13;;;;;;;5.35;3.33;;;;;;;-138.14;100.00;63448.66;4915717;29;20229;-76
2021/06/17 11:18:52;;;;;;;4.13;3.50;;;;;;;-138.14;100.00;63448.66;4930964;29;20477;-76